Morrill, Kentucky
Current Conditions -  °F | °C
As of 12:35 PM on Thursday 30 Oct 2014 (Local Time) from KI39 Reporting Station
Overcast Overcast  
Wind Chill: 48°   Ceiling: 3100
Heat Index: 48°   Visibility: 10mi
Dew Point: 36°   Wind: 3mph
Humidity: 62%   Direction: 70°ENE
Pressure: 30.15"   Gusts: NA
Location:  37.4446°N, 84.0227°W
Report Text: KI39 301635Z AUTO 07003KT 10SM OVC031 09/02 A3015 RMK AO2
Loading
Personal Weather Stations






























Interactive Weather Map
Tropical Storm Tracking
New forecast layout! Learn more

10-Day Weather Forecast

Advertisements
Track Severe Weather on mobile